Time;durP1;ratioP1;P1;durP2;ratioP2;P2;SDS_P1;SDS_P2;PMS_P1;PMS_P2;Temp;Humidity;BMP_temperature;BMP_pressure;BME280_temperature;BME280_humidity;BME280_pressure;Samples;Min_cycle;Max_cycle;Signal;HPM_P1;HPM_P2
2023/08/13 00:00:16;;;;;;;12.15;2.60;;;19.10;99.90;;;;;;5034186;28;20112;-80
2023/08/13 00:02:43;;;;;;;12.15;3.03;;;19.10;99.90;;;;;;5032828;28;20476;-80
2023/08/13 00:05:09;;;;;;;9.35;2.63;;;19.90;99.90;;;;;;5033912;28;20044;-81
2023/08/13 00:07:35;;;;;;;9.85;2.35;;;19.10;99.90;;;;;;5033930;28;20029;-80
2023/08/13 00:10:01;;;;;;;11.70;2.75;;;19.00;99.90;;;;;;5033644;28;20052;-81
2023/08/13 00:12:27;;;;;;;10.25;3.22;;;19.20;99.90;;;;;;5034090;28;20053;-81
2023/08/13 00:14:52;;;;;;;9.27;2.72;;;19.00;99.90;;;;;;5033409;28;20452;-81
2023/08/13 00:17:18;;;;;;;13.55;2.42;;;19.00;99.90;;;;;;5033030;28;20076;-81
2023/08/13 00:19:43;;;;;;;11.50;2.65;;;19.80;99.90;;;;;;5033370;28;20025;-81
2023/08/13 00:22:09;;;;;;;14.75;3.22;;;19.00;99.90;;;;;;5033514;28;20056;-80
2023/08/13 00:24:35;;;;;;;7.18;2.80;;;19.00;99.90;;;;;;5032630;28;20044;-81
2023/08/13 00:27:01;;;;;;;7.57;2.30;;;19.10;99.90;;;;;;5033541;28;20032;-81
2023/08/13 00:29:27;;;;;;;11.88;3.33;;;19.00;99.90;;;;;;5033483;28;20057;-81
2023/08/13 00:31:55;;;;;;;8.25;3.03;;;19.00;99.90;;;;;;5032468;28;20100;-81
2023/08/13 00:34:21;;;;;;;11.07;2.72;;;19.00;99.90;;;;;;5033450;28;20029;-81
2023/08/13 00:36:46;;;;;;;17.20;3.42;;;19.20;99.90;;;;;;5032986;28;20169;-81
2023/08/13 00:39:12;;;;;;;16.35;3.28;;;19.00;99.90;;;;;;5032673;28;20496;-81
2023/08/13 00:41:37;;;;;;;8.65;2.78;;;19.00;99.90;;;;;;5033115;28;20057;-81
2023/08/13 00:44:03;;;;;;;14.18;3.70;;;18.90;99.90;;;;;;5032408;28;20037;-81
2023/08/13 00:46:29;;;;;;;8.38;3.25;;;18.90;99.90;;;;;;5032943;28;20499;-81
2023/08/13 00:48:58;;;;;;;12.82;3.45;;;18.90;99.90;;;;;;5032956;28;20841;-81
2023/08/13 00:51:24;;;;;;;12.38;3.42;;;18.90;99.90;;;;;;5032294;28;20079;-81
2023/08/13 00:53:49;;;;;;;11.55;3.20;;;18.90;99.90;;;;;;5032286;28;20078;-81
2023/08/13 00:56:16;;;;;;;11.15;3.80;;;18.90;99.90;;;;;;5033432;28;20026;-81
2023/08/13 00:58:43;;;;;;;6.15;3.30;;;18.90;99.90;;;;;;5031692;28;20491;-80
2023/08/13 01:01:09;;;;;;;11.75;3.75;;;19.10;99.90;;;;;;5032866;28;20030;-82
2023/08/13 01:03:36;;;;;;;11.52;3.72;;;18.90;99.90;;;;;;5032163;28;20079;-82
2023/08/13 01:06:29;;;;;;;13.27;4.18;;;18.90;99.90;;;;;;5031973;28;20021;-83
2023/08/13 01:09:06;;;;;;;16.90;3.90;;;18.90;99.90;;;;;;5032600;28;20152;-82
2023/08/13 01:11:49;;;;;;;19.88;3.65;;;18.80;99.90;;;;;;5032381;28;20040;-82
2023/08/13 01:14:25;;;;;;;8.52;3.03;;;18.80;99.90;;;;;;5032383;28;20449;-82
2023/08/13 01:16:54;;;;;;;14.88;3.70;;;18.80;99.90;;;;;;5032334;28;20744;-82
2023/08/13 01:19:19;;;;;;;13.52;3.17;;;19.30;99.90;;;;;;5031938;28;20035;-82
2023/08/13 01:21:46;;;;;;;16.80;3.80;;;18.70;99.90;;;;;;5032185;28;20025;-82
2023/08/13 01:24:11;;;;;;;16.65;3.63;;;18.90;99.90;;;;;;5032345;28;20404;-82
2023/08/13 01:26:58;;;;;;;13.20;4.18;;;18.60;99.90;;;;;;5031296;28;20029;-82
2023/08/13 01:29:45;;;;;;;10.82;3.88;;;18.60;99.90;;;;;;5032302;28;20136;-82
2023/08/13 01:32:13;;;;;;;11.77;3.30;;;18.60;99.90;;;;;;5032277;28;20017;-81
2023/08/13 01:34:40;;;;;;;10.52;3.50;;;18.60;99.90;;;;;;5031320;28;20044;-81
2023/08/13 01:37:06;;;;;;;9.35;3.35;;;18.80;99.90;;;;;;5032143;28;20033;-81
2023/08/13 01:39:33;;;;;;;13.10;2.50;;;18.60;99.90;;;;;;5032154;28;20032;-81
2023/08/13 01:41:58;;;;;;;12.60;3.60;;;18.60;99.90;;;;;;5031227;28;20079;-82
2023/08/13 01:44:24;;;;;;;9.13;2.85;;;18.60;99.90;;;;;;5032482;28;20041;-81
2023/08/13 01:46:50;;;;;;;11.45;3.45;;;18.60;99.90;;;;;;5031763;28;20026;-82
2023/08/13 01:49:15;;;;;;;11.15;3.33;;;18.60;99.90;;;;;;5031366;28;20025;-82
2023/08/13 01:51:41;;;;;;;16.00;3.45;;;18.50;99.90;;;;;;5031600;28;20056;-82
2023/08/13 01:54:07;;;;;;;13.07;3.47;;;18.50;99.90;;;;;;5032301;28;20109;-81
2023/08/13 01:56:32;;;;;;;13.57;4.93;;;18.50;99.90;;;;;;5031226;28;20350;-81
2023/08/13 01:58:58;;;;;;;12.32;3.92;;;18.50;99.90;;;;;;5031737;28;20034;-82
2023/08/13 02:01:23;;;;;;;13.88;3.05;;;18.50;99.90;;;;;;5031020;28;20060;-82
2023/08/13 02:03:49;;;;;;;8.02;3.13;;;18.40;99.90;;;;;;5031871;28;20499;-82
2023/08/13 02:06:15;;;;;;;11.35;3.60;;;18.40;99.90;;;;;;5031952;28;20051;-82
2023/08/13 02:08:40;;;;;;;11.77;3.03;;;18.40;99.90;;;;;;5030995;28;20088;-82
2023/08/13 02:11:06;;;;;;;14.80;3.20;;;18.40;99.90;;;;;;5032248;28;20039;-82
2023/08/13 02:13:32;;;;;;;13.90;3.38;;;18.40;99.90;;;;;;5031770;28;20377;-81
2023/08/13 02:16:04;;;;;;;8.65;2.90;;;18.40;99.90;;;;;;5032330;28;20036;-82
2023/08/13 02:18:30;;;;;;;7.18;3.00;;;18.40;99.90;;;;;;5035612;28;20120;-81
2023/08/13 02:20:56;;;;;;;8.50;3.20;;;18.30;99.90;;;;;;5035693;28;20029;-82
2023/08/13 02:23:22;;;;;;;12.40;3.90;;;18.40;99.90;;;;;;5035187;28;20371;-82
2023/08/13 02:25:47;;;;;;;17.33;4.68;;;18.40;99.90;;;;;;5035599;28;20025;-82
2023/08/13 02:28:13;;;;;;;8.57;3.25;;;18.40;99.90;;;;;;5035800;28;20095;-82
2023/08/13 02:30:39;;;;;;;9.95;3.40;;;18.30;99.90;;;;;;5034399;28;20390;-82
2023/08/13 02:33:04;;;;;;;19.58;3.65;;;18.40;99.90;;;;;;5035704;28;20022;-82
2023/08/13 02:35:30;;;;;;;7.63;2.13;;;18.40;99.90;;;;;;5035216;28;20029;-82
2023/08/13 02:37:56;;;;;;;9.85;3.00;;;18.50;99.90;;;;;;5035019;28;20044;-81
2023/08/13 02:40:21;;;;;;;13.07;3.08;;;18.40;99.90;;;;;;5035669;28;20030;-82
2023/08/13 02:42:47;;;;;;;11.82;3.38;;;18.40;99.90;;;;;;5035099;28;20029;-82
2023/08/13 02:45:12;;;;;;;10.43;3.08;;;18.40;99.90;;;;;;5034826;28;20070;-82
2023/08/13 02:47:38;;;;;;;8.43;3.25;;;18.40;99.90;;;;;;5035022;28;20053;-82
2023/08/13 02:50:04;;;;;;;11.10;3.00;;;18.70;99.90;;;;;;5035256;28;20045;-82
2023/08/13 02:52:30;;;;;;;14.15;2.83;;;18.30;99.90;;;;;;5034232;28;20079;-82
2023/08/13 02:54:55;;;;;;;10.25;3.28;;;18.20;99.90;;;;;;5035163;28;20496;-82
2023/08/13 02:57:21;;;;;;;18.15;3.30;;;18.50;99.90;;;;;;5035209;28;20465;-82
2023/08/13 02:59:46;;;;;;;15.60;3.40;;;18.20;99.90;;;;;;5034043;28;20079;-81
2023/08/13 03:02:12;;;;;;;10.05;3.05;;;18.20;99.90;;;;;;5035032;28;20036;-81
2023/08/13 03:04:38;;;;;;;13.43;3.10;;;18.20;99.90;;;;;;5033921;28;20415;-82
2023/08/13 03:07:03;;;;;;;12.88;2.88;;;18.10;99.90;;;;;;5035065;28;20533;-81
2023/08/13 03:09:29;;;;;;;10.05;2.55;;;18.10;99.90;;;;;;5034734;28;20550;-81
2023/08/13 03:11:55;;;;;;;12.10;2.58;;;18.90;99.90;;;;;;5034084;28;20095;-81
2023/08/13 03:14:20;;;;;;;11.85;3.13;;;18.70;99.90;;;;;;5034898;28;20021;-82
2023/08/13 03:16:46;;;;;;;14.07;3.63;;;18.70;99.90;;;;;;5034529;28;20025;-81
2023/08/13 03:19:11;;;;;;;10.77;2.85;;;18.10;99.90;;;;;;5033984;28;20029;-81
2023/08/13 03:21:37;;;;;;;9.95;3.03;;;18.00;99.90;;;;;;5034632;28;20465;-81
2023/08/13 03:24:03;;;;;;;10.05;2.78;;;18.50;99.90;;;;;;5034525;28;20041;-81
2023/08/13 03:26:30;;;;;;;11.75;2.22;;;18.10;99.90;;;;;;5033131;28;20025;-81
2023/08/13 03:28:56;;;;;;;16.58;3.05;;;19.00;99.90;;;;;;5033488;28;20050;-81
2023/08/13 03:31:21;;;;;;;8.63;3.08;;;18.60;99.90;;;;;;5034624;28;20507;-81
2023/08/13 03:33:47;;;;;;;8.30;2.83;;;18.70;99.90;;;;;;5033389;28;20468;-81
2023/08/13 03:36:12;;;;;;;9.82;2.60;;;18.10;99.90;;;;;;5034449;28;20064;-81
2023/08/13 03:38:38;;;;;;;8.95;2.38;;;18.10;99.90;;;;;;5034045;28;20029;-81
2023/08/13 03:41:04;;;;;;;15.43;3.28;;;18.10;99.90;;;;;;5033828;28;20021;-81
2023/08/13 03:43:29;;;;;;;11.07;2.92;;;18.10;99.90;;;;;;5034020;28;20045;-81
2023/08/13 03:45:55;;;;;;;10.25;3.25;;;18.10;99.90;;;;;;5034137;28;20142;-81
2023/08/13 03:48:20;;;;;;;8.65;3.05;;;18.00;99.90;;;;;;5033477;28;20031;-81
2023/08/13 03:50:46;;;;;;;16.00;3.40;;;18.20;99.90;;;;;;5034033;28;20028;-81
2023/08/13 03:53:12;;;;;;;11.75;2.67;;;18.00;99.90;;;;;;5034234;28;20076;-81
2023/08/13 03:55:38;;;;;;;11.27;2.80;;;18.00;99.90;;;;;;5033342;28;20025;-81
2023/08/13 03:58:04;;;;;;;14.55;3.10;;;18.00;99.90;;;;;;5034249;28;20021;-81
2023/08/13 04:00:30;;;;;;;12.98;2.90;;;18.00;99.90;;;;;;5034068;28;20109;-81
2023/08/13 04:02:56;;;;;;;10.55;3.53;;;18.00;99.90;;;;;;5033039;28;20572;-81
2023/08/13 04:05:21;;;;;;;15.98;3.13;;;18.10;99.90;;;;;;5034181;28;20124;-81
2023/08/13 04:07:47;;;;;;;6.45;2.38;;;18.10;99.90;;;;;;5033702;28;20527;-81
2023/08/13 04:10:12;;;;;;;10.95;2.63;;;18.10;99.90;;;;;;5033321;28;20029;-81
2023/08/13 04:12:38;;;;;;;6.95;2.25;;;18.00;99.90;;;;;;5033368;28;20084;-81
2023/08/13 04:15:04;;;;;;;10.13;3.00;;;18.40;99.90;;;;;;5033075;28;20021;-81
2023/08/13 04:17:30;;;;;;;9.65;2.55;;;18.10;99.90;;;;;;5033317;28;20032;-81
2023/08/13 04:19:55;;;;;;;12.38;3.03;;;18.10;99.90;;;;;;5033730;28;20116;-81
2023/08/13 04:22:21;;;;;;;10.43;3.15;;;18.40;99.90;;;;;;5033259;28;20398;-81
2023/08/13 04:24:50;;;;;;;10.40;3.20;;;18.10;99.90;;;;;;5033054;28;20041;-81
2023/08/13 04:27:19;;;;;;;9.68;2.38;;;18.10;99.90;;;;;;5033495;28;20477;-81
2023/08/13 04:29:45;;;;;;;14.00;3.50;;;18.00;99.90;;;;;;5032282;28;20103;-81
2023/08/13 04:32:11;;;;;;;16.95;2.80;;;18.00;99.90;;;;;;5033493;28;20025;-81
2023/08/13 04:34:36;;;;;;;8.43;2.28;;;18.10;99.90;;;;;;5033479;28;20374;-82
2023/08/13 04:37:02;;;;;;;8.68;2.83;;;18.00;99.90;;;;;;5032735;28;20382;-81
2023/08/13 04:39:28;;;;;;;10.90;2.53;;;18.10;99.90;;;;;;5033152;28;20481;-81
2023/08/13 04:41:59;;;;;;;9.68;2.67;;;18.50;99.90;;;;;;5033038;28;20140;-81
2023/08/13 04:44:25;;;;;;;10.23;2.60;;;18.10;99.90;;;;;;5032584;28;20069;-81
2023/08/13 04:46:50;;;;;;;7.63;2.97;;;18.10;99.90;;;;;;5032938;28;20049;-81
2023/08/13 04:49:16;;;;;;;10.10;2.20;;;18.00;99.90;;;;;;5033488;28;20051;-81
2023/08/13 04:51:42;;;;;;;10.70;2.47;;;18.00;99.90;;;;;;5032215;28;20024;-82
2023/08/13 04:54:07;;;;;;;12.85;2.80;;;18.00;99.90;;;;;;5033411;28;20125;-82
2023/08/13 04:56:33;;;;;;;15.20;2.33;;;18.00;99.90;;;;;;5032889;28;20076;-81
2023/08/13 04:58:58;;;;;;;8.07;2.45;;;18.00;99.90;;;;;;5032134;28;20412;-81
2023/08/13 05:01:24;;;;;;;12.52;3.80;;;18.00;99.90;;;;;;5032777;28;20025;-81
2023/08/13 05:03:49;;;;;;;10.18;3.33;;;18.30;99.90;;;;;;5032810;28;20044;-81
2023/08/13 05:06:15;;;;;;;12.48;3.25;;;18.00;99.90;;;;;;5031949;28;20033;-82
2023/08/13 05:08:41;;;;;;;9.65;3.35;;;18.00;99.90;;;;;;5032303;28;20433;-81
2023/08/13 05:11:06;;;;;;;11.48;2.88;;;18.00;99.90;;;;;;5032758;28;20021;-81
2023/08/13 05:13:32;;;;;;;14.55;3.10;;;18.20;99.90;;;;;;5031726;28;20492;-81
2023/08/13 05:15:58;;;;;;;10.68;3.22;;;18.00;99.90;;;;;;5032412;28;20136;-81
2023/08/13 05:18:24;;;;;;;14.43;3.63;;;18.00;99.90;;;;;;5031913;28;20014;-81
2023/08/13 05:20:50;;;;;;;12.23;3.42;;;18.10;99.90;;;;;;5032066;28;20160;-81
2023/08/13 05:23:16;;;;;;;9.85;3.25;;;18.10;99.90;;;;;;5032579;28;20076;-81
2023/08/13 05:25:41;;;;;;;15.90;3.80;;;18.10;99.90;;;;;;5031535;28;20103;-81
2023/08/13 05:28:08;;;;;;;17.90;4.28;;;18.10;99.90;;;;;;5032386;28;20038;-81
2023/08/13 05:30:35;;;;;;;17.08;3.10;;;18.10;99.90;;;;;;5032029;28;20053;-81
2023/08/13 05:33:01;;;;;;;11.13;2.85;;;18.10;99.90;;;;;;5031345;28;20029;-81
2023/08/13 05:35:27;;;;;;;11.63;3.50;;;18.80;99.90;;;;;;5032249;28;20036;-81
2023/08/13 05:37:52;;;;;;;6.35;2.50;;;18.10;99.90;;;;;;5031987;28;20029;-81
2023/08/13 05:40:18;;;;;;;14.88;3.58;;;18.30;99.90;;;;;;5031527;28;20017;-81
2023/08/13 05:42:45;;;;;;;11.75;2.78;;;18.20;99.90;;;;;;5031896;28;20056;-81
2023/08/13 05:45:11;;;;;;;11.00;3.05;;;18.20;99.90;;;;;;5032273;28;20051;-80
2023/08/13 05:47:37;;;;;;;10.27;2.90;;;18.20;99.90;;;;;;5031139;28;20022;-81
2023/08/13 05:50:03;;;;;;;16.38;3.40;;;18.10;99.90;;;;;;5031475;28;20127;-81
2023/08/13 05:52:29;;;;;;;14.13;3.85;;;18.20;99.90;;;;;;5031821;28;20033;-81
2023/08/13 05:54:55;;;;;;;8.55;2.85;;;18.20;99.90;;;;;;5031438;28;20036;-81
2023/08/13 05:57:21;;;;;;;7.55;3.10;;;18.70;99.90;;;;;;5032302;28;20022;-81
2023/08/13 05:59:46;;;;;;;7.20;3.13;;;18.20;99.90;;;;;;5031577;28;20033;-81
2023/08/13 06:02:12;;;;;;;8.75;2.80;;;18.20;99.90;;;;;;5031426;28;20427;-81
2023/08/13 06:04:37;;;;;;;6.15;2.45;;;18.30;99.90;;;;;;5031402;28;20040;-81
2023/08/13 06:07:03;;;;;;;6.82;2.63;;;18.50;99.90;;;;;;5031808;28;20079;-81
2023/08/13 06:09:30;;;;;;;9.63;3.25;;;18.40;99.90;;;;;;5030990;28;20060;-81
2023/08/13 06:11:55;;;;;;;14.23;3.30;;;18.40;99.90;;;;;;5031842;28;20029;-81
2023/08/13 06:14:21;;;;;;;14.15;2.75;;;18.40;99.90;;;;;;5032150;28;20036;-81
2023/08/13 06:16:46;;;;;;;14.80;3.70;;;18.40;99.90;;;;;;5030881;28;20029;-81
2023/08/13 06:19:12;;;;;;;9.48;2.90;;;18.50;99.90;;;;;;5031917;28;20117;-81
2023/08/13 06:21:38;;;;;;;6.25;2.95;;;18.50;99.90;;;;;;5030916;28;20515;-81
2023/08/13 06:24:05;;;;;;;15.82;3.42;;;18.50;99.90;;;;;;5032067;28;20412;-81
2023/08/13 06:26:31;;;;;;;11.13;2.88;;;18.50;99.90;;;;;;5031548;28;20508;-81
2023/08/13 06:28:57;;;;;;;10.77;2.90;;;18.50;99.90;;;;;;5030588;28;20079;-81
2023/08/13 06:31:22;;;;;;;11.40;3.15;;;18.50;99.90;;;;;;5032335;28;20057;-81
2023/08/13 06:33:48;;;;;;;9.38;2.67;;;18.40;99.90;;;;;;5031721;28;20414;-81
2023/08/13 06:36:13;;;;;;;10.60;4.13;;;18.50;99.90;;;;;;5030995;28;20503;-82
2023/08/13 06:38:39;;;;;;;11.60;3.60;;;18.50;99.90;;;;;;5031170;28;20392;-81
2023/08/13 06:41:08;;;;;;;12.00;3.20;;;18.50;99.90;;;;;;5031624;28;20036;-81
2023/08/13 06:43:33;;;;;;;10.43;3.05;;;18.50;99.90;;;;;;5030504;28;20377;-81
2023/08/13 06:46:00;;;;;;;11.32;3.17;;;18.60;99.90;;;;;;5031715;28;20021;-81
2023/08/13 06:48:32;;;;;;;7.97;3.17;;;18.90;99.90;;;;;;5031804;28;20029;-81
2023/08/13 06:50:58;;;;;;;15.60;3.83;;;18.60;99.90;;;;;;5030651;28;20030;-81
2023/08/13 06:53:24;;;;;;;12.10;3.75;;;18.50;99.90;;;;;;5031634;28;20041;-81
2023/08/13 06:55:50;;;;;;;15.32;4.47;;;18.60;99.90;;;;;;5031103;28;20032;-81
2023/08/13 06:58:16;;;;;;;11.90;2.97;;;18.70;99.90;;;;;;5030746;28;20068;-81
2023/08/13 07:00:42;;;;;;;10.15;3.25;;;18.90;99.90;;;;;;5031219;28;20029;-81
2023/08/13 07:03:09;;;;;;;10.93;3.08;;;18.80;99.90;;;;;;5034557;28;20396;-81
2023/08/13 07:05:42;;;;;;;9.10;2.78;;;18.80;99.90;;;;;;5034180;28;20074;-81
2023/08/13 07:08:09;;;;;;;13.85;3.40;;;18.70;99.90;;;;;;5034933;28;20032;-81
2023/08/13 07:10:34;;;;;;;9.15;3.13;;;18.80;99.90;;;;;;5034728;28;20152;-81
2023/08/13 07:13:00;;;;;;;11.50;2.90;;;18.80;99.90;;;;;;5034313;28;20100;-81
2023/08/13 07:15:26;;;;;;;9.90;3.28;;;18.80;99.90;;;;;;5035054;28;20160;-81
2023/08/13 07:17:51;;;;;;;7.75;2.40;;;18.80;99.90;;;;;;5033657;28;20573;-81
2023/08/13 07:20:17;;;;;;;8.68;2.53;;;18.80;99.90;;;;;;5034802;28;20037;-81
2023/08/13 07:22:44;;;;;;;8.05;2.40;;;18.90;99.90;;;;;;5034501;28;20501;-81
2023/08/13 07:25:14;;;;;;;7.25;2.45;;;19.00;99.90;;;;;;5033858;28;20048;-81
2023/08/13 07:27:40;;;;;;;6.33;2.40;;;18.90;99.90;;;;;;5034480;28;20029;-81
2023/08/13 07:30:07;;;;;;;14.23;2.88;;;18.90;99.90;;;;;;5034475;28;20455;-81
2023/08/13 07:32:35;;;;;;;8.45;2.53;;;18.90;99.90;;;;;;5033426;28;20385;-82
2023/08/13 07:35:01;;;;;;;11.77;2.90;;;19.00;99.90;;;;;;5034318;28;20531;-82
2023/08/13 07:37:27;;;;;;;7.35;3.33;;;19.00;99.90;;;;;;5034780;28;20249;-81
2023/08/13 07:39:52;;;;;;;10.50;3.05;;;19.20;99.90;;;;;;5033712;28;20025;-82
2023/08/13 07:42:18;;;;;;;7.57;2.85;;;19.40;99.90;;;;;;5034222;28;20025;-81
2023/08/13 07:44:44;;;;;;;8.00;3.45;;;19.00;99.90;;;;;;5033935;28;20124;-81
2023/08/13 07:47:09;;;;;;;10.07;2.83;;;19.00;99.90;;;;;;5033480;28;20543;-81
2023/08/13 07:49:35;;;;;;;7.35;2.10;;;19.40;99.90;;;;;;5034044;28;20029;-81
2023/08/13 07:52:00;;;;;;;7.03;2.70;;;19.00;99.90;;;;;;5034595;28;20076;-81
2023/08/13 07:54:27;;;;;;;10.73;2.08;;;19.00;99.90;;;;;;5034013;28;20030;-81
2023/08/13 07:56:53;;;;;;;9.18;2.33;;;19.10;99.90;;;;;;5033702;28;20481;-81
2023/08/13 07:59:19;;;;;;;9.82;2.85;;;19.50;99.90;;;;;;5034021;28;20037;-81
2023/08/13 08:01:45;;;;;;;6.55;2.00;;;19.10;99.90;;;;;;5032777;28;20036;-81
2023/08/13 08:04:10;;;;;;;10.48;2.58;;;19.10;99.90;;;;;;5033855;28;20105;-81
2023/08/13 08:06:37;;;;;;;8.18;2.30;;;19.20;99.90;;;;;;5033566;28;20108;-81
2023/08/13 08:09:03;;;;;;;7.65;2.58;;;19.20;99.90;;;;;;5033293;28;20481;-81
2023/08/13 08:11:28;;;;;;;8.10;1.92;;;19.20;99.90;;;;;;5033912;28;20033;-81
2023/08/13 08:13:54;;;;;;;5.55;2.03;;;19.30;99.90;;;;;;5032889;28;20439;-81
2023/08/13 08:16:19;;;;;;;7.53;2.50;;;19.30;99.90;;;;;;5032989;28;20032;-81
2023/08/13 08:18:45;;;;;;;7.30;2.58;;;19.30;99.90;;;;;;5033299;28;20128;-82
2023/08/13 08:21:10;;;;;;;5.47;1.55;;;19.30;99.90;;;;;;5032894;28;20100;-83
2023/08/13 08:23:36;;;;;;;6.95;1.55;;;19.40;99.90;;;;;;5033364;28;20382;-83
2023/08/13 08:26:02;;;;;;;6.43;1.67;;;19.90;99.90;;;;;;5033731;28;20052;-82
2023/08/13 08:28:27;;;;;;;4.80;1.25;;;19.90;99.90;;;;;;5033018;28;20034;-82
2023/08/13 08:30:53;;;;;;;9.02;1.75;;;19.40;99.90;;;;;;5032995;28;20493;-82
2023/08/13 08:33:21;;;;;;;4.03;1.58;;;19.40;99.90;;;;;;5033511;28;20489;-82
2023/08/13 08:35:46;;;;;;;2.75;1.52;;;19.30;99.90;;;;;;5032401;28;20083;-83
2023/08/13 08:38:12;;;;;;;9.10;2.38;;;19.50;99.90;;;;;;5033211;28;20025;-82
2023/08/13 08:40:38;;;;;;;5.93;1.88;;;19.50;99.90;;;;;;5032810;28;20432;-82
2023/08/13 08:43:05;;;;;;;8.75;2.08;;;19.60;99.90;;;;;;5032398;28;20560;-82
2023/08/13 08:45:32;;;;;;;4.65;1.95;;;19.60;99.90;;;;;;5033041;28;20117;-82
2023/08/13 08:47:58;;;;;;;8.48;2.22;;;19.70;99.90;;;;;;5033154;28;20029;-82
2023/08/13 08:50:23;;;;;;;7.53;2.35;;;19.60;99.90;;;;;;5032345;28;20033;-82
2023/08/13 08:52:50;;;;;;;8.27;2.63;;;19.60;99.90;;;;;;5033145;28;20021;-82
2023/08/13 08:55:16;;;;;;;5.32;2.00;;;19.70;99.90;;;;;;5033159;28;20026;-82
2023/08/13 08:57:41;;;;;;;8.00;2.58;;;19.60;99.90;;;;;;5031924;28;20386;-82
2023/08/13 09:00:08;;;;;;;14.43;2.97;;;19.60;99.90;;;;;;5032975;28;20033;-82
2023/08/13 09:02:34;;;;;;;6.50;1.77;;;19.70;99.90;;;;;;5032509;28;20030;-82
2023/08/13 09:05:00;;;;;;;11.95;2.50;;;19.70;99.90;;;;;;5032318;28;20423;-82
2023/08/13 09:07:31;;;;;;;8.27;2.05;;;19.70;99.90;;;;;;5032863;28;20060;-82
2023/08/13 09:09:57;;;;;;;9.35;2.75;;;19.70;99.90;;;;;;5032811;28;20034;-82
2023/08/13 09:12:23;;;;;;;6.95;2.28;;;19.60;99.90;;;;;;5032110;28;20033;-82
2023/08/13 09:14:54;;;;;;;7.47;1.90;;;20.60;99.90;;;;;;5032331;28;20026;-82
2023/08/13 09:17:24;;;;;;;7.32;2.28;;;19.70;99.90;;;;;;5032193;28;20034;-82
2023/08/13 09:19:50;;;;;;;7.63;2.63;;;20.40;99.90;;;;;;5032075;28;20032;-82
2023/08/13 09:22:15;;;;;;;13.13;2.13;;;20.00;99.90;;;;;;5032708;28;20026;-82
2023/08/13 09:24:41;;;;;;;8.45;2.13;;;19.80;99.90;;;;;;5031464;28;20033;-82
2023/08/13 09:27:08;;;;;;;3.97;1.70;;;19.80;99.90;;;;;;5032533;28;20025;-82
2023/08/13 09:29:35;;;;;;;9.77;2.15;;;19.80;99.90;;;;;;5031923;28;20100;-82
2023/08/13 09:32:02;;;;;;;10.73;2.22;;;19.80;99.90;;;;;;5031531;28;20030;-82
2023/08/13 09:34:30;;;;;;;9.70;2.15;;;19.90;99.90;;;;;;5032353;28;20033;-82
2023/08/13 09:36:57;;;;;;;6.90;2.58;;;19.90;99.90;;;;;;5031921;28;20374;-82
2023/08/13 09:39:27;;;;;;;5.95;2.05;;;19.90;99.90;;;;;;5031819;28;20040;-82
2023/08/13 09:41:54;;;;;;;11.43;2.90;;;20.00;99.90;;;;;;5031859;28;20116;-81
2023/08/13 09:44:24;;;;;;;12.23;3.00;;;20.00;99.90;;;;;;5032046;28;20436;-82
2023/08/13 09:46:54;;;;;;;4.72;2.42;;;20.10;99.90;;;;;;5031155;28;20021;-81
2023/08/13 09:49:27;;;;;;;8.77;2.13;;;20.20;99.90;;;;;;5032798;28;20037;-82
2023/08/13 09:51:56;;;;;;;6.47;2.13;;;20.10;99.90;;;;;;5031803;28;20026;-82
2023/08/13 09:54:41;;;;;;;7.32;2.55;;;20.40;99.90;;;;;;5031467;28;20128;-82
2023/08/13 09:57:11;;;;;;;6.88;1.90;;;20.10;99.90;;;;;;5031904;28;20504;-82
2023/08/13 09:59:37;;;;;;;4.03;1.73;;;20.20;99.90;;;;;;5030897;28;20543;-82
2023/08/13 10:02:09;;;;;;;5.18;1.70;;;20.40;99.90;;;;;;5031959;28;20029;-83
2023/08/13 10:04:41;;;;;;;12.82;1.92;;;20.10;99.90;;;;;;5031633;28;20389;-82
2023/08/13 10:07:07;;;;;;;6.60;1.90;;;20.10;99.90;;;;;;5031206;28;20096;-82
2023/08/13 10:09:34;;;;;;;4.30;1.70;;;19.80;99.90;;;;;;5031291;28;20068;-82
2023/08/13 10:12:03;;;;;;;2.40;1.00;;;20.10;99.90;;;;;;5031426;28;20033;-82
2023/08/13 10:14:30;;;;;;;3.03;1.70;;;20.20;99.90;;;;;;5030662;28;20029;-82
2023/08/13 10:17:00;;;;;;;5.65;1.42;;;20.20;99.90;;;;;;5031491;28;20069;-83
2023/08/13 10:19:29;;;;;;;8.47;1.73;;;20.20;99.90;;;;;;5031744;28;20069;-83
2023/08/13 10:21:56;;;;;;;4.47;1.50;;;20.20;99.90;;;;;;5030593;28;20521;-82
2023/08/13 10:24:22;;;;;;;3.25;1.33;;;20.30;99.90;;;;;;5031549;28;20064;-82
2023/08/13 10:26:48;;;;;;;3.80;1.10;;;20.30;99.90;;;;;;5031399;28;20022;-82
2023/08/13 10:29:20;;;;;;;4.25;1.58;;;20.40;99.90;;;;;;5030738;28;20045;-82
2023/08/13 10:31:59;;;;;;;3.85;1.25;;;20.40;99.90;;;;;;5031284;28;20044;-82
2023/08/13 10:34:47;;;;;;;3.85;1.42;;;20.40;99.90;;;;;;5031411;28;20029;-82
2023/08/13 10:37:23;;;;;;;2.80;1.10;;;20.40;99.90;;;;;;5033310;28;20079;-81
2023/08/13 10:39:55;;;;;;;6.97;1.60;;;20.50;99.90;;;;;;5035488;28;20029;-81
2023/08/13 10:42:26;;;;;;;2.13;1.08;;;20.40;99.90;;;;;;5034845;28;20095;-81
2023/08/13 10:45:09;;;;;;;5.20;1.77;;;20.40;99.90;;;;;;5034839;28;20507;-82
2023/08/13 10:47:37;;;;;;;3.58;1.50;;;20.50;99.90;;;;;;5035308;28;20080;-81
2023/08/13 10:50:30;;;;;;;4.00;1.35;;;21.10;99.90;;;;;;5034996;28;20034;-81
2023/08/13 10:53:22;;;;;;;4.78;1.20;;;20.50;99.90;;;;;;5024521;28;20073;-81
2023/08/13 10:55:59;;;;;;;3.47;1.27;;;20.50;99.90;;;;;;5034650;28;20057;-83
2023/08/13 10:58:44;;;;;;;5.95;1.30;;;20.40;99.90;;;;;;5035254;28;20395;-83
2023/08/13 11:01:12;;;;;;;6.60;1.70;;;20.50;99.90;;;;;;5035304;28;20026;-83
2023/08/13 11:03:46;;;;;;;3.15;1.30;;;20.60;99.90;;;;;;5033991;28;20389;-82
2023/08/13 11:06:13;;;;;;;5.45;1.80;;;20.70;99.90;;;;;;5035123;28;20032;-82
2023/08/13 11:08:40;;;;;;;3.97;1.50;;;20.60;99.90;;;;;;5034687;28;20030;-82
2023/08/13 11:11:06;;;;;;;4.85;1.58;;;20.60;99.90;;;;;;5033894;28;20025;-82
2023/08/13 11:13:33;;;;;;;5.70;1.40;;;20.60;99.90;;;;;;5034761;28;20029;-82
2023/08/13 11:15:59;;;;;;;3.65;1.85;;;21.20;99.90;;;;;;5034506;28;20025;-82
2023/08/13 11:18:24;;;;;;;6.38;2.40;;;20.60;99.90;;;;;;5034020;28;20104;-82
2023/08/13 11:20:51;;;;;;;6.28;1.85;;;20.70;99.90;;;;;;5034578;28;20022;-82
2023/08/13 11:23:18;;;;;;;5.55;2.10;;;20.60;99.90;;;;;;5034822;28;20071;-82
2023/08/13 11:25:46;;;;;;;3.28;1.30;;;20.70;99.90;;;;;;5033797;28;20036;-82
2023/08/13 11:28:21;;;;;;;6.85;2.08;;;20.70;99.90;;;;;;5034420;28;20049;-82
2023/08/13 11:30:47;;;;;;;3.67;1.85;;;20.70;99.90;;;;;;5034235;28;20073;-82
2023/08/13 11:33:14;;;;;;;9.55;2.78;;;20.80;99.90;;;;;;5033736;28;20056;-82
2023/08/13 11:35:40;;;;;;;12.00;2.30;;;20.80;99.90;;;;;;5034311;28;20018;-82
2023/08/13 11:38:06;;;;;;;7.47;2.33;;;20.80;99.90;;;;;;5033814;28;20120;-82
2023/08/13 11:40:32;;;;;;;18.30;3.72;;;20.90;99.90;;;;;;5034075;28;20044;-82
2023/08/13 11:42:59;;;;;;;9.32;2.47;;;21.30;99.90;;;;;;5034266;28;20033;-82
2023/08/13 11:45:26;;;;;;;7.38;2.50;;;20.90;99.90;;;;;;5033558;28;20048;-83
2023/08/13 11:47:52;;;;;;;6.28;2.20;;;21.00;99.90;;;;;;5033178;28;20028;-82
2023/08/13 11:50:19;;;;;;;4.63;2.40;;;20.90;99.90;;;;;;5033754;28;20033;-82
2023/08/13 11:53:13;;;;;;;12.88;3.13;;;21.00;99.90;;;;;;5033400;28;20029;-82
2023/08/13 11:55:41;;;;;;;7.03;3.10;;;21.00;99.90;;;;;;5033865;28;20025;-82
2023/08/13 11:58:07;;;;;;;5.68;2.20;;;20.90;99.90;;;;;;5033512;28;20481;-82
2023/08/13 12:00:33;;;;;;;10.13;2.70;;;21.10;99.90;;;;;;5033305;28;20044;-82
2023/08/13 12:02:59;;;;;;;9.98;3.13;;;21.60;99.90;;;;;;5033877;28;20037;-80
2023/08/13 12:05:31;;;;;;;9.65;3.15;;;21.10;99.90;;;;;;5033841;28;20477;-82
2023/08/13 12:07:58;;;;;;;7.78;2.30;;;20.90;99.90;;;;;;5033562;28;20024;-81
2023/08/13 12:10:24;;;;;;;6.60;2.30;;;21.20;99.90;;;;;;5033804;28;20068;-82
2023/08/13 12:12:50;;;;;;;16.05;2.70;;;21.00;99.90;;;;;;5033654;28;20057;-82
2023/08/13 12:15:21;;;;;;;6.57;3.05;;;21.00;99.90;;;;;;5033150;28;20045;-82
2023/08/13 12:17:46;;;;;;;10.68;3.40;;;21.20;99.90;;;;;;5033567;28;20022;-82
2023/08/13 12:20:12;;;;;;;9.43;3.20;;;21.00;99.90;;;;;;5033082;28;20104;-82
2023/08/13 12:22:41;;;;;;;15.32;3.40;;;21.00;99.90;;;;;;5033330;28;20377;-82
2023/08/13 12:25:07;;;;;;;10.02;3.33;;;21.00;99.90;;;;;;5033525;28;20111;-82
2023/08/13 12:27:34;;;;;;;9.77;3.42;;;21.00;99.90;;;;;;5032470;28;20053;-82
2023/08/13 12:29:59;;;;;;;13.63;3.05;;;21.00;99.90;;;;;;5033182;28;20072;-82
2023/08/13 12:32:25;;;;;;;6.32;2.45;;;20.90;99.90;;;;;;5033107;28;20022;-82
2023/08/13 12:34:51;;;;;;;9.57;3.42;;;21.00;99.90;;;;;;5032270;28;20065;-82
2023/08/13 12:37:16;;;;;;;10.73;3.28;;;21.00;99.90;;;;;;5033427;28;20057;-82
2023/08/13 12:39:42;;;;;;;9.02;2.78;;;21.10;99.90;;;;;;5032839;28;20132;-82
2023/08/13 12:42:10;;;;;;;11.38;3.45;;;20.90;99.90;;;;;;5032376;28;20473;-82